sensor_id;sensor_type;location;lat;lon;timestamp;temperature;humidity
17918;DHT22;9084;50.956;3.106;2024-01-15T00:01:49;3.30;99.90
17918;DHT22;9084;50.956;3.106;2024-01-15T00:04:15;3.30;99.90
17918;DHT22;9084;50.956;3.106;2024-01-15T00:06:43;3.30;99.90
17918;DHT22;9084;50.956;3.106;2024-01-15T00:09:09;3.30;99.90
17918;DHT22;9084;50.956;3.106;2024-01-15T00:11:35;3.40;99.90
17918;DHT22;9084;50.956;3.106;2024-01-15T00:14:03;3.40;99.90
17918;DHT22;9084;50.956;3.106;2024-01-15T00:16:29;3.40;99.90
17918;DHT22;9084;50.956;3.106;2024-01-15T00:18:56;3.40;99.90
17918;DHT22;9084;50.956;3.106;2024-01-15T00:21:24;3.40;99.90
17918;DHT22;9084;50.956;3.106;2024-01-15T00:23:50;3.40;99.90
17918;DHT22;9084;50.956;3.106;2024-01-15T00:26:16;3.40;99.90
17918;DHT22;9084;50.956;3.106;2024-01-15T00:28:42;3.50;99.90
17918;DHT22;9084;50.956;3.106;2024-01-15T00:31:10;3.50;99.90
17918;DHT22;9084;50.956;3.106;2024-01-15T00:33:38;3.50;99.90
17918;DHT22;9084;50.956;3.106;2024-01-15T00:36:04;3.50;99.90
17918;DHT22;9084;50.956;3.106;2024-01-15T00:38:29;3.60;99.90
17918;DHT22;9084;50.956;3.106;2024-01-15T00:40:55;3.60;99.90
17918;DHT22;9084;50.956;3.106;2024-01-15T00:43:20;3.70;99.90
17918;DHT22;9084;50.956;3.106;2024-01-15T00:45:49;3.60;99.90
17918;DHT22;9084;50.956;3.106;2024-01-15T00:48:14;3.60;99.90
17918;DHT22;9084;50.956;3.106;2024-01-15T00:50:40;3.70;99.90
17918;DHT22;9084;50.956;3.106;2024-01-15T00:53:08;3.70;99.90
17918;DHT22;9084;50.956;3.106;2024-01-15T00:55:36;3.70;99.90
17918;DHT22;9084;50.956;3.106;2024-01-15T00:58:03;3.70;99.90
17918;DHT22;9084;50.956;3.106;2024-01-15T01:00:29;3.80;99.90
17918;DHT22;9084;50.956;3.106;2024-01-15T01:02:54;3.80;99.90
17918;DHT22;9084;50.956;3.106;2024-01-15T01:05:20;3.70;99.90
17918;DHT22;9084;50.956;3.106;2024-01-15T01:07:46;3.70;99.90
17918;DHT22;9084;50.956;3.106;2024-01-15T01:10:14;3.70;99.90
17918;DHT22;9084;50.956;3.106;2024-01-15T01:12:42;3.70;99.90
17918;DHT22;9084;50.956;3.106;2024-01-15T01:15:08;3.80;99.90
17918;DHT22;9084;50.956;3.106;2024-01-15T01:17:34;3.80;99.90
17918;DHT22;9084;50.956;3.106;2024-01-15T01:19:59;3.90;99.90
17918;DHT22;9084;50.956;3.106;2024-01-15T01:22:25;3.90;99.90
17918;DHT22;9084;50.956;3.106;2024-01-15T01:24:53;3.90;99.90
17918;DHT22;9084;50.956;3.106;2024-01-15T01:27:21;3.90;99.90
17918;DHT22;9084;50.956;3.106;2024-01-15T01:29:47;3.90;99.90
17918;DHT22;9084;50.956;3.106;2024-01-15T01:32:12;3.80;99.90
17918;DHT22;9084;50.956;3.106;2024-01-15T01:34:41;3.90;99.90
17918;DHT22;9084;50.956;3.106;2024-01-15T01:37:12;3.80;99.90
17918;DHT22;9084;50.956;3.106;2024-01-15T01:39:45;3.80;99.90
17918;DHT22;9084;50.956;3.106;2024-01-15T01:42:12;3.90;99.90
17918;DHT22;9084;50.956;3.106;2024-01-15T01:44:38;3.90;99.90
17918;DHT22;9084;50.956;3.106;2024-01-15T01:47:04;3.80;99.90
17918;DHT22;9084;50.956;3.106;2024-01-15T01:49:30;3.80;99.90
17918;DHT22;9084;50.956;3.106;2024-01-15T01:52:00;3.80;99.90
17918;DHT22;9084;50.956;3.106;2024-01-15T01:54:32;3.80;99.90
17918;DHT22;9084;50.956;3.106;2024-01-15T01:56:58;3.80;99.90
17918;DHT22;9084;50.956;3.106;2024-01-15T01:59:27;3.80;99.90
17918;DHT22;9084;50.956;3.106;2024-01-15T02:01:57;3.80;99.90
17918;DHT22;9084;50.956;3.106;2024-01-15T02:04:28;3.80;99.90
17918;DHT22;9084;50.956;3.106;2024-01-15T02:06:54;3.80;99.90
17918;DHT22;9084;50.956;3.106;2024-01-15T02:09:19;3.80;99.90
17918;DHT22;9084;50.956;3.106;2024-01-15T02:11:48;3.80;99.90
17918;DHT22;9084;50.956;3.106;2024-01-15T02:14:14;3.80;99.90
17918;DHT22;9084;50.956;3.106;2024-01-15T02:16:40;3.80;99.90
17918;DHT22;9084;50.956;3.106;2024-01-15T02:19:06;3.80;99.90
17918;DHT22;9084;50.956;3.106;2024-01-15T02:21:34;3.80;99.90
17918;DHT22;9084;50.956;3.106;2024-01-15T02:24:00;3.80;99.90
17918;DHT22;9084;50.956;3.106;2024-01-15T02:26:26;3.80;99.90
17918;DHT22;9084;50.956;3.106;2024-01-15T02:28:52;3.70;99.90
17918;DHT22;9084;50.956;3.106;2024-01-15T02:31:17;3.80;99.90
17918;DHT22;9084;50.956;3.106;2024-01-15T02:33:43;3.80;99.90
17918;DHT22;9084;50.956;3.106;2024-01-15T02:36:11;3.80;99.90
17918;DHT22;9084;50.956;3.106;2024-01-15T02:38:41;3.80;99.90
17918;DHT22;9084;50.956;3.106;2024-01-15T02:41:08;3.80;99.90
17918;DHT22;9084;50.956;3.106;2024-01-15T02:43:34;3.70;99.90
17918;DHT22;9084;50.956;3.106;2024-01-15T02:46:00;3.80;99.90
17918;DHT22;9084;50.956;3.106;2024-01-15T02:48:25;3.70;99.90
17918;DHT22;9084;50.956;3.106;2024-01-15T02:50:51;3.80;99.90
17918;DHT22;9084;50.956;3.106;2024-01-15T02:53:16;3.70;99.90
17918;DHT22;9084;50.956;3.106;2024-01-15T02:55:44;3.80;99.90
17918;DHT22;9084;50.956;3.106;2024-01-15T02:58:11;3.80;99.90
17918;DHT22;9084;50.956;3.106;2024-01-15T03:00:36;3.80;99.90
17918;DHT22;9084;50.956;3.106;2024-01-15T03:03:02;3.80;99.90
17918;DHT22;9084;50.956;3.106;2024-01-15T03:05:30;3.70;99.90
17918;DHT22;9084;50.956;3.106;2024-01-15T03:07:58;3.70;99.90
17918;DHT22;9084;50.956;3.106;2024-01-15T03:10:24;3.60;99.90
17918;DHT22;9084;50.956;3.106;2024-01-15T03:12:52;3.70;99.90
17918;DHT22;9084;50.956;3.106;2024-01-15T03:15:19;3.70;99.90
17918;DHT22;9084;50.956;3.106;2024-01-15T03:17:45;3.60;99.90
17918;DHT22;9084;50.956;3.106;2024-01-15T03:20:15;3.60;99.90
17918;DHT22;9084;50.956;3.106;2024-01-15T03:22:41;3.70;99.90
17918;DHT22;9084;50.956;3.106;2024-01-15T03:25:07;3.60;99.90
17918;DHT22;9084;50.956;3.106;2024-01-15T03:27:33;3.70;99.90
17918;DHT22;9084;50.956;3.106;2024-01-15T03:29:59;3.60;99.90
17918;DHT22;9084;50.956;3.106;2024-01-15T03:32:24;3.70;99.90
17918;DHT22;9084;50.956;3.106;2024-01-15T03:34:50;3.70;99.90
17918;DHT22;9084;50.956;3.106;2024-01-15T03:37:19;3.70;99.90
17918;DHT22;9084;50.956;3.106;2024-01-15T03:39:48;3.80;99.90
17918;DHT22;9084;50.956;3.106;2024-01-15T03:42:13;3.80;99.90
17918;DHT22;9084;50.956;3.106;2024-01-15T03:44:40;3.90;99.90
17918;DHT22;9084;50.956;3.106;2024-01-15T03:47:05;3.80;99.90
17918;DHT22;9084;50.956;3.106;2024-01-15T03:49:33;3.80;99.90
17918;DHT22;9084;50.956;3.106;2024-01-15T03:51:59;3.80;99.90
17918;DHT22;9084;50.956;3.106;2024-01-15T03:54:24;3.80;99.90
17918;DHT22;9084;50.956;3.106;2024-01-15T03:56:51;3.90;99.90
17918;DHT22;9084;50.956;3.106;2024-01-15T03:59:16;3.80;99.90
17918;DHT22;9084;50.956;3.106;2024-01-15T04:01:51;3.80;99.90
17918;DHT22;9084;50.956;3.106;2024-01-15T04:04:19;3.80;99.90
17918;DHT22;9084;50.956;3.106;2024-01-15T04:06:44;3.80;99.90
17918;DHT22;9084;50.956;3.106;2024-01-15T04:09:11;3.70;99.90
17918;DHT22;9084;50.956;3.106;2024-01-15T04:11:39;3.80;99.90
17918;DHT22;9084;50.956;3.106;2024-01-15T04:14:05;3.80;99.90
17918;DHT22;9084;50.956;3.106;2024-01-15T04:16:33;3.80;99.90
17918;DHT22;9084;50.956;3.106;2024-01-15T04:18:59;3.80;99.90
17918;DHT22;9084;50.956;3.106;2024-01-15T04:21:24;3.80;99.90
17918;DHT22;9084;50.956;3.106;2024-01-15T04:23:50;3.80;99.90
17918;DHT22;9084;50.956;3.106;2024-01-15T04:26:18;3.80;99.90
17918;DHT22;9084;50.956;3.106;2024-01-15T04:28:46;3.80;99.90
17918;DHT22;9084;50.956;3.106;2024-01-15T04:31:24;3.80;99.90
17918;DHT22;9084;50.956;3.106;2024-01-15T04:33:50;3.70;99.90
17918;DHT22;9084;50.956;3.106;2024-01-15T04:36:16;3.80;99.90
17918;DHT22;9084;50.956;3.106;2024-01-15T04:38:42;3.80;99.90
17918;DHT22;9084;50.956;3.106;2024-01-15T04:41:11;3.80;99.90
17918;DHT22;9084;50.956;3.106;2024-01-15T04:43:37;3.70;99.90
17918;DHT22;9084;50.956;3.106;2024-01-15T04:46:05;3.70;99.90
17918;DHT22;9084;50.956;3.106;2024-01-15T04:48:31;3.70;99.90
17918;DHT22;9084;50.956;3.106;2024-01-15T04:50:56;3.70;99.90
17918;DHT22;9084;50.956;3.106;2024-01-15T04:53:22;3.70;99.90
17918;DHT22;9084;50.956;3.106;2024-01-15T04:55:48;3.60;99.90
17918;DHT22;9084;50.956;3.106;2024-01-15T04:58:13;3.80;99.90
17918;DHT22;9084;50.956;3.106;2024-01-15T05:00:39;3.70;99.90
17918;DHT22;9084;50.956;3.106;2024-01-15T05:03:05;3.70;99.90
17918;DHT22;9084;50.956;3.106;2024-01-15T05:05:30;3.60;99.90
17918;DHT22;9084;50.956;3.106;2024-01-15T05:07:56;3.70;99.90
17918;DHT22;9084;50.956;3.106;2024-01-15T05:10:21;3.60;99.90
17918;DHT22;9084;50.956;3.106;2024-01-15T05:12:47;3.70;85.70
17918;DHT22;9084;50.956;3.106;2024-01-15T05:15:13;3.70;35.60
17918;DHT22;9084;50.956;3.106;2024-01-15T05:17:41;3.70;9.30
17918;DHT22;9084;50.956;3.106;2024-01-15T05:20:07;3.70;1.00
17918;DHT22;9084;50.956;3.106;2024-01-15T05:22:33;3.70;1.00
17918;DHT22;9084;50.956;3.106;2024-01-15T05:25:01;3.80;1.00
17918;DHT22;9084;50.956;3.106;2024-01-15T05:27:27;3.80;1.00
17918;DHT22;9084;50.956;3.106;2024-01-15T05:29:52;3.80;1.00
17918;DHT22;9084;50.956;3.106;2024-01-15T05:32:20;3.80;1.00
17918;DHT22;9084;50.956;3.106;2024-01-15T05:34:46;3.80;1.00
17918;DHT22;9084;50.956;3.106;2024-01-15T05:37:11;3.80;1.00
17918;DHT22;9084;50.956;3.106;2024-01-15T05:39:37;3.80;1.00
17918;DHT22;9084;50.956;3.106;2024-01-15T05:42:06;3.80;1.00
17918;DHT22;9084;50.956;3.106;2024-01-15T05:44:31;3.80;1.00
17918;DHT22;9084;50.956;3.106;2024-01-15T05:46:59;3.80;1.00
17918;DHT22;9084;50.956;3.106;2024-01-15T05:49:29;3.70;1.00
17918;DHT22;9084;50.956;3.106;2024-01-15T05:51:55;3.70;1.00
17918;DHT22;9084;50.956;3.106;2024-01-15T05:54:20;3.70;1.00
17918;DHT22;9084;50.956;3.106;2024-01-15T05:56:46;3.80;1.00
17918;DHT22;9084;50.956;3.106;2024-01-15T05:59:14;3.70;1.00
17918;DHT22;9084;50.956;3.106;2024-01-15T06:01:40;3.80;1.00
17918;DHT22;9084;50.956;3.106;2024-01-15T06:04:08;3.70;1.00
17918;DHT22;9084;50.956;3.106;2024-01-15T06:06:36;3.70;1.00
17918;DHT22;9084;50.956;3.106;2024-01-15T06:09:01;3.60;1.00
17918;DHT22;9084;50.956;3.106;2024-01-15T06:11:33;3.70;1.00
17918;DHT22;9084;50.956;3.106;2024-01-15T06:13:59;3.70;1.00
17918;DHT22;9084;50.956;3.106;2024-01-15T06:16:26;3.70;1.00
17918;DHT22;9084;50.956;3.106;2024-01-15T06:18:54;3.70;1.00
17918;DHT22;9084;50.956;3.106;2024-01-15T06:21:20;3.60;1.00
17918;DHT22;9084;50.956;3.106;2024-01-15T06:23:48;3.60;1.00
17918;DHT22;9084;50.956;3.106;2024-01-15T06:26:16;3.50;1.00
17918;DHT22;9084;50.956;3.106;2024-01-15T06:28:41;3.40;1.00
17918;DHT22;9084;50.956;3.106;2024-01-15T06:31:07;3.30;1.00
17918;DHT22;9084;50.956;3.106;2024-01-15T06:33:33;3.20;1.00
17918;DHT22;9084;50.956;3.106;2024-01-15T06:35:59;3.20;1.00
17918;DHT22;9084;50.956;3.106;2024-01-15T06:38:24;3.10;1.00
17918;DHT22;9084;50.956;3.106;2024-01-15T06:40:51;3.10;1.00
17918;DHT22;9084;50.956;3.106;2024-01-15T06:43:17;3.00;1.00
17918;DHT22;9084;50.956;3.106;2024-01-15T06:45:44;3.00;1.00
17918;DHT22;9084;50.956;3.106;2024-01-15T06:48:09;2.90;1.00
17918;DHT22;9084;50.956;3.106;2024-01-15T06:50:35;2.90;1.00
17918;DHT22;9084;50.956;3.106;2024-01-15T06:53:01;2.80;1.00
17918;DHT22;9084;50.956;3.106;2024-01-15T06:55:26;2.80;1.00
17918;DHT22;9084;50.956;3.106;2024-01-15T06:57:53;2.70;1.00
17918;DHT22;9084;50.956;3.106;2024-01-15T07:00:19;2.70;1.00
17918;DHT22;9084;50.956;3.106;2024-01-15T07:02:45;2.70;1.00
17918;DHT22;9084;50.956;3.106;2024-01-15T07:05:13;2.60;1.00
17918;DHT22;9084;50.956;3.106;2024-01-15T07:07:41;2.60;1.00
17918;DHT22;9084;50.956;3.106;2024-01-15T07:10:09;2.50;1.00
17918;DHT22;9084;50.956;3.106;2024-01-15T07:12:35;2.50;1.00
17918;DHT22;9084;50.956;3.106;2024-01-15T07:15:01;2.50;1.00
17918;DHT22;9084;50.956;3.106;2024-01-15T07:17:27;2.50;1.00
17918;DHT22;9084;50.956;3.106;2024-01-15T07:19:53;2.50;1.00
17918;DHT22;9084;50.956;3.106;2024-01-15T07:22:18;2.50;1.00
17918;DHT22;9084;50.956;3.106;2024-01-15T07:24:46;2.50;1.00
17918;DHT22;9084;50.956;3.106;2024-01-15T07:27:12;2.50;1.00
17918;DHT22;9084;50.956;3.106;2024-01-15T07:29:40;2.50;1.00
17918;DHT22;9084;50.956;3.106;2024-01-15T07:32:06;2.50;1.00
17918;DHT22;9084;50.956;3.106;2024-01-15T07:34:36;2.50;1.00
17918;DHT22;9084;50.956;3.106;2024-01-15T07:37:02;2.50;1.00
17918;DHT22;9084;50.956;3.106;2024-01-15T07:39:27;2.50;1.00
17918;DHT22;9084;50.956;3.106;2024-01-15T07:41:54;2.60;1.00
17918;DHT22;9084;50.956;3.106;2024-01-15T07:44:22;2.60;1.00
17918;DHT22;9084;50.956;3.106;2024-01-15T07:46:50;2.70;1.00
17918;DHT22;9084;50.956;3.106;2024-01-15T07:49:18;2.70;1.00
17918;DHT22;9084;50.956;3.106;2024-01-15T07:51:44;2.60;1.00
17918;DHT22;9084;50.956;3.106;2024-01-15T07:54:12;2.70;1.00
17918;DHT22;9084;50.956;3.106;2024-01-15T07:56:57;2.70;1.00
17918;DHT22;9084;50.956;3.106;2024-01-15T07:59:24;2.70;1.00
17918;DHT22;9084;50.956;3.106;2024-01-15T08:01:51;2.90;1.00
17918;DHT22;9084;50.956;3.106;2024-01-15T08:04:19;2.80;1.00
17918;DHT22;9084;50.956;3.106;2024-01-15T08:06:45;2.90;1.00
17918;DHT22;9084;50.956;3.106;2024-01-15T08:09:12;2.90;1.00
17918;DHT22;9084;50.956;3.106;2024-01-15T08:11:44;3.00;1.00
17918;DHT22;9084;50.956;3.106;2024-01-15T08:14:12;3.00;1.00
17918;DHT22;9084;50.956;3.106;2024-01-15T08:16:40;3.10;1.00
17918;DHT22;9084;50.956;3.106;2024-01-15T08:19:09;3.10;1.00
17918;DHT22;9084;50.956;3.106;2024-01-15T08:21:34;3.10;1.00
17918;DHT22;9084;50.956;3.106;2024-01-15T08:24:01;3.20;1.00
17918;DHT22;9084;50.956;3.106;2024-01-15T08:26:30;3.20;1.00
17918;DHT22;9084;50.956;3.106;2024-01-15T08:28:56;3.30;1.00
17918;DHT22;9084;50.956;3.106;2024-01-15T08:31:23;3.20;1.00
17918;DHT22;9084;50.956;3.106;2024-01-15T08:33:48;3.20;1.00
17918;DHT22;9084;50.956;3.106;2024-01-15T08:36:14;3.20;1.00
17918;DHT22;9084;50.956;3.106;2024-01-15T08:38:39;3.30;1.00
17918;DHT22;9084;50.956;3.106;2024-01-15T08:41:05;3.10;1.00
17918;DHT22;9084;50.956;3.106;2024-01-15T08:43:31;3.10;1.00
17918;DHT22;9084;50.956;3.106;2024-01-15T08:45:57;3.10;1.00
17918;DHT22;9084;50.956;3.106;2024-01-15T08:48:23;3.10;1.00
17918;DHT22;9084;50.956;3.106;2024-01-15T08:50:48;3.10;1.00
17918;DHT22;9084;50.956;3.106;2024-01-15T08:53:14;3.10;1.00
17918;DHT22;9084;50.956;3.106;2024-01-15T08:55:40;3.20;1.00
17918;DHT22;9084;50.956;3.106;2024-01-15T08:58:10;3.30;1.00
17918;DHT22;9084;50.956;3.106;2024-01-15T09:00:35;3.30;1.00
17918;DHT22;9084;50.956;3.106;2024-01-15T09:03:02;3.40;1.00
17918;DHT22;9084;50.956;3.106;2024-01-15T09:05:30;3.50;1.00
17918;DHT22;9084;50.956;3.106;2024-01-15T09:07:56;3.50;1.00
17918;DHT22;9084;50.956;3.106;2024-01-15T09:10:24;3.50;1.00
17918;DHT22;9084;50.956;3.106;2024-01-15T09:12:49;3.60;99.90
17918;DHT22;9084;50.956;3.106;2024-01-15T09:15:15;3.50;99.90
17918;DHT22;9084;50.956;3.106;2024-01-15T09:17:41;3.50;99.90
17918;DHT22;9084;50.956;3.106;2024-01-15T09:20:09;3.40;99.90
17918;DHT22;9084;50.956;3.106;2024-01-15T09:22:38;3.40;99.90
17918;DHT22;9084;50.956;3.106;2024-01-15T09:25:07;3.50;99.90
17918;DHT22;9084;50.956;3.106;2024-01-15T09:27:33;3.40;99.90
17918;DHT22;9084;50.956;3.106;2024-01-15T09:29:59;3.40;99.90
17918;DHT22;9084;50.956;3.106;2024-01-15T09:32:25;3.40;99.90
17918;DHT22;9084;50.956;3.106;2024-01-15T09:34:50;3.30;99.90
17918;DHT22;9084;50.956;3.106;2024-01-15T09:37:16;3.30;99.90
17918;DHT22;9084;50.956;3.106;2024-01-15T09:39:42;3.30;99.90
17918;DHT22;9084;50.956;3.106;2024-01-15T09:42:09;3.30;99.90
17918;DHT22;9084;50.956;3.106;2024-01-15T09:44:36;3.40;99.90
17918;DHT22;9084;50.956;3.106;2024-01-15T09:47:05;3.30;99.90
17918;DHT22;9084;50.956;3.106;2024-01-15T09:49:31;3.40;99.90
17918;DHT22;9084;50.956;3.106;2024-01-15T09:51:58;3.40;99.90
17918;DHT22;9084;50.956;3.106;2024-01-15T09:54:28;3.60;99.90
17918;DHT22;9084;50.956;3.106;2024-01-15T09:56:54;3.60;99.90
17918;DHT22;9084;50.956;3.106;2024-01-15T09:59:20;3.60;99.90
17918;DHT22;9084;50.956;3.106;2024-01-15T10:01:47;3.60;35.20
17918;DHT22;9084;50.956;3.106;2024-01-15T10:04:15;3.70;1.00
17918;DHT22;9084;50.956;3.106;2024-01-15T10:06:44;3.80;1.00
17918;DHT22;9084;50.956;3.106;2024-01-15T10:09:13;3.90;1.00
17918;DHT22;9084;50.956;3.106;2024-01-15T10:11:43;4.00;1.00
17918;DHT22;9084;50.956;3.106;2024-01-15T10:14:12;4.20;99.90
17918;DHT22;9084;50.956;3.106;2024-01-15T10:16:39;4.30;99.90
17918;DHT22;9084;50.956;3.106;2024-01-15T10:19:04;4.30;1.00
17918;DHT22;9084;50.956;3.106;2024-01-15T10:21:32;4.30;1.00
17918;DHT22;9084;50.956;3.106;2024-01-15T10:24:00;4.20;1.00
17918;DHT22;9084;50.956;3.106;2024-01-15T10:26:28;4.20;1.00
17918;DHT22;9084;50.956;3.106;2024-01-15T10:28:58;4.10;99.90
17918;DHT22;9084;50.956;3.106;2024-01-15T10:31:26;4.00;99.90
17918;DHT22;9084;50.956;3.106;2024-01-15T10:34:12;4.00;99.90
17918;DHT22;9084;50.956;3.106;2024-01-15T10:36:40;4.00;1.00
17918;DHT22;9084;50.956;3.106;2024-01-15T10:39:06;3.90;1.00
17918;DHT22;9084;50.956;3.106;2024-01-15T10:41:33;3.90;99.90
17918;DHT22;9084;50.956;3.106;2024-01-15T10:43:58;3.80;1.00
17918;DHT22;9084;50.956;3.106;2024-01-15T10:46:25;3.70;1.00
17918;DHT22;9084;50.956;3.106;2024-01-15T10:48:51;3.70;99.90
17918;DHT22;9084;50.956;3.106;2024-01-15T10:51:19;3.70;1.00
17918;DHT22;9084;50.956;3.106;2024-01-15T10:53:45;3.70;1.00
17918;DHT22;9084;50.956;3.106;2024-01-15T10:56:12;3.80;1.00
17918;DHT22;9084;50.956;3.106;2024-01-15T10:58:39;3.90;99.90
17918;DHT22;9084;50.956;3.106;2024-01-15T11:01:06;4.10;1.00
17918;DHT22;9084;50.956;3.106;2024-01-15T11:03:34;4.30;99.90
17918;DHT22;9084;50.956;3.106;2024-01-15T11:06:00;4.50;99.90
17918;DHT22;9084;50.956;3.106;2024-01-15T11:08:28;4.60;1.00
17918;DHT22;9084;50.956;3.106;2024-01-15T11:10:57;4.80;1.00
17918;DHT22;9084;50.956;3.106;2024-01-15T11:13:40;4.80;1.00
17918;DHT22;9084;50.956;3.106;2024-01-15T11:16:10;4.90;1.00
17918;DHT22;9084;50.956;3.106;2024-01-15T11:21:25;4.80;30.00
17918;DHT22;9084;50.956;3.106;2024-01-15T11:23:55;4.80;99.90
17918;DHT22;9084;50.956;3.106;2024-01-15T11:28:54;4.60;99.90
17918;DHT22;9084;50.956;3.106;2024-01-15T11:31:25;4.60;1.00
17918;DHT22;9084;50.956;3.106;2024-01-15T11:33:51;4.60;1.00
17918;DHT22;9084;50.956;3.106;2024-01-15T11:36:16;4.60;1.00
17918;DHT22;9084;50.956;3.106;2024-01-15T11:38:42;4.60;1.00
17918;DHT22;9084;50.956;3.106;2024-01-15T11:41:14;4.60;1.00
17918;DHT22;9084;50.956;3.106;2024-01-15T11:43:43;4.50;1.00
17918;DHT22;9084;50.956;3.106;2024-01-15T11:46:11;4.60;99.90
17918;DHT22;9084;50.956;3.106;2024-01-15T11:48:43;4.60;1.00
17918;DHT22;9084;50.956;3.106;2024-01-15T11:51:12;4.70;99.90
17918;DHT22;9084;50.956;3.106;2024-01-15T11:53:48;4.80;1.00
17918;DHT22;9084;50.956;3.106;2024-01-15T11:56:22;4.80;1.00
17918;DHT22;9084;50.956;3.106;2024-01-15T11:58:51;4.80;1.00
17918;DHT22;9084;50.956;3.106;2024-01-15T12:01:19;4.80;1.00
17918;DHT22;9084;50.956;3.106;2024-01-15T12:03:47;4.90;14.10
17918;DHT22;9084;50.956;3.106;2024-01-15T12:06:14;5.00;1.00
17918;DHT22;9084;50.956;3.106;2024-01-15T12:08:42;5.10;99.90
17918;DHT22;9084;50.956;3.106;2024-01-15T12:11:13;5.20;1.00
17918;DHT22;9084;50.956;3.106;2024-01-15T12:13:42;5.20;99.90
17918;DHT22;9084;50.956;3.106;2024-01-15T12:16:10;5.20;99.90
17918;DHT22;9084;50.956;3.106;2024-01-15T12:18:37;5.10;99.90
17918;DHT22;9084;50.956;3.106;2024-01-15T12:21:04;5.10;1.00
17918;DHT22;9084;50.956;3.106;2024-01-15T12:23:31;5.00;1.00
17918;DHT22;9084;50.956;3.106;2024-01-15T12:25:59;5.00;5.50
17918;DHT22;9084;50.956;3.106;2024-01-15T12:28:27;4.90;99.90
17918;DHT22;9084;50.956;3.106;2024-01-15T12:30:55;4.80;99.90
17918;DHT22;9084;50.956;3.106;2024-01-15T12:33:24;4.70;1.00
17918;DHT22;9084;50.956;3.106;2024-01-15T12:35:53;4.60;1.00
17918;DHT22;9084;50.956;3.106;2024-01-15T12:38:19;4.60;1.00
17918;DHT22;9084;50.956;3.106;2024-01-15T12:40:45;4.60;99.90
17918;DHT22;9084;50.956;3.106;2024-01-15T12:43:20;4.50;15.70
17918;DHT22;9084;50.956;3.106;2024-01-15T12:45:45;4.50;99.90
17918;DHT22;9084;50.956;3.106;2024-01-15T12:48:11;4.40;99.90
17918;DHT22;9084;50.956;3.106;2024-01-15T12:50:44;4.40;1.00
17918;DHT22;9084;50.956;3.106;2024-01-15T12:53:11;4.40;1.00
17918;DHT22;9084;50.956;3.106;2024-01-15T12:55:39;4.40;1.00
17918;DHT22;9084;50.956;3.106;2024-01-15T12:58:04;4.30;1.00
17918;DHT22;9084;50.956;3.106;2024-01-15T13:00:30;4.40;1.00
17918;DHT22;9084;50.956;3.106;2024-01-15T13:02:57;4.40;1.00
17918;DHT22;9084;50.956;3.106;2024-01-15T13:05:23;4.50;1.00
17918;DHT22;9084;50.956;3.106;2024-01-15T13:07:51;4.50;99.90
17918;DHT22;9084;50.956;3.106;2024-01-15T13:10:16;4.70;1.00
17918;DHT22;9084;50.956;3.106;2024-01-15T13:12:42;4.80;99.90
17918;DHT22;9084;50.956;3.106;2024-01-15T13:15:08;4.90;99.90
17918;DHT22;9084;50.956;3.106;2024-01-15T13:17:37;5.00;1.00
17918;DHT22;9084;50.956;3.106;2024-01-15T13:20:04;5.00;1.00
17918;DHT22;9084;50.956;3.106;2024-01-15T13:22:30;4.90;1.00
17918;DHT22;9084;50.956;3.106;2024-01-15T13:24:58;4.80;1.00
17918;DHT22;9084;50.956;3.106;2024-01-15T13:27:26;4.70;1.00
17918;DHT22;9084;50.956;3.106;2024-01-15T13:29:52;4.60;99.90
17918;DHT22;9084;50.956;3.106;2024-01-15T13:32:27;4.60;1.00
17918;DHT22;9084;50.956;3.106;2024-01-15T13:34:55;4.60;99.90
17918;DHT22;9084;50.956;3.106;2024-01-15T13:37:23;4.70;98.50
17918;DHT22;9084;50.956;3.106;2024-01-15T13:39:55;4.80;1.00
17918;DHT22;9084;50.956;3.106;2024-01-15T13:42:21;4.80;1.00
17918;DHT22;9084;50.956;3.106;2024-01-15T13:44:47;4.90;1.00
17918;DHT22;9084;50.956;3.106;2024-01-15T13:47:13;4.90;1.00
17918;DHT22;9084;50.956;3.106;2024-01-15T13:49:39;4.90;1.00
17918;DHT22;9084;50.956;3.106;2024-01-15T13:52:05;4.80;99.90
17918;DHT22;9084;50.956;3.106;2024-01-15T13:54:30;4.80;99.90
17918;DHT22;9084;50.956;3.106;2024-01-15T13:56:59;4.70;1.00
17918;DHT22;9084;50.956;3.106;2024-01-15T13:59:24;4.70;1.00
17918;DHT22;9084;50.956;3.106;2024-01-15T14:01:50;4.80;1.00
17918;DHT22;9084;50.956;3.106;2024-01-15T14:04:16;4.70;99.90
17918;DHT22;9084;50.956;3.106;2024-01-15T14:06:41;4.60;1.00
17918;DHT22;9084;50.956;3.106;2024-01-15T14:09:09;4.50;99.90
17918;DHT22;9084;50.956;3.106;2024-01-15T14:11:36;4.40;1.00
17918;DHT22;9084;50.956;3.106;2024-01-15T14:14:05;4.40;1.00
17918;DHT22;9084;50.956;3.106;2024-01-15T14:16:33;4.50;1.00
17918;DHT22;9084;50.956;3.106;2024-01-15T14:18:58;4.50;1.00
17918;DHT22;9084;50.956;3.106;2024-01-15T14:21:28;4.50;1.00
17918;DHT22;9084;50.956;3.106;2024-01-15T14:23:55;4.40;1.00
17918;DHT22;9084;50.956;3.106;2024-01-15T14:26:21;4.40;1.00
17918;DHT22;9084;50.956;3.106;2024-01-15T14:28:51;4.30;1.00
17918;DHT22;9084;50.956;3.106;2024-01-15T14:31:17;4.20;99.90
17918;DHT22;9084;50.956;3.106;2024-01-15T14:33:43;4.20;99.90
17918;DHT22;9084;50.956;3.106;2024-01-15T14:36:09;4.10;99.90
17918;DHT22;9084;50.956;3.106;2024-01-15T14:38:34;4.00;99.90
17918;DHT22;9084;50.956;3.106;2024-01-15T14:41:00;4.00;1.00
17918;DHT22;9084;50.956;3.106;2024-01-15T14:43:29;3.90;1.00
17918;DHT22;9084;50.956;3.106;2024-01-15T14:45:54;3.90;1.00
17918;DHT22;9084;50.956;3.106;2024-01-15T14:48:22;3.80;1.00
17918;DHT22;9084;50.956;3.106;2024-01-15T14:50:48;3.80;1.00
17918;DHT22;9084;50.956;3.106;2024-01-15T14:53:14;3.80;1.00
17918;DHT22;9084;50.956;3.106;2024-01-15T14:55:42;3.60;1.00
17918;DHT22;9084;50.956;3.106;2024-01-15T14:58:08;3.80;1.00
17918;DHT22;9084;50.956;3.106;2024-01-15T15:00:34;3.80;1.00
17918;DHT22;9084;50.956;3.106;2024-01-15T15:03:00;3.90;1.00
17918;DHT22;9084;50.956;3.106;2024-01-15T15:05:25;3.90;99.90
17918;DHT22;9084;50.956;3.106;2024-01-15T15:07:54;4.00;99.90
17918;DHT22;9084;50.956;3.106;2024-01-15T15:10:19;4.10;1.00
17918;DHT22;9084;50.956;3.106;2024-01-15T15:12:45;4.20;1.00
17918;DHT22;9084;50.956;3.106;2024-01-15T15:15:10;4.30;8.70
17918;DHT22;9084;50.956;3.106;2024-01-15T15:17:37;4.30;1.00
17918;DHT22;9084;50.956;3.106;2024-01-15T15:20:04;4.30;1.00
17918;DHT22;9084;50.956;3.106;2024-01-15T15:22:31;4.30;1.00
17918;DHT22;9084;50.956;3.106;2024-01-15T15:24:56;4.30;1.00
17918;DHT22;9084;50.956;3.106;2024-01-15T15:27:27;4.30;1.00
17918;DHT22;9084;50.956;3.106;2024-01-15T15:29:53;4.20;1.00
17918;DHT22;9084;50.956;3.106;2024-01-15T15:32:19;4.20;1.00
17918;DHT22;9084;50.956;3.106;2024-01-15T15:34:47;4.10;1.00
17918;DHT22;9084;50.956;3.106;2024-01-15T15:37:13;4.10;99.90
17918;DHT22;9084;50.956;3.106;2024-01-15T15:39:42;4.10;99.90
17918;DHT22;9084;50.956;3.106;2024-01-15T15:42:08;4.10;99.90
17918;DHT22;9084;50.956;3.106;2024-01-15T15:44:33;4.00;99.90
17918;DHT22;9084;50.956;3.106;2024-01-15T15:46:59;4.00;99.90
17918;DHT22;9084;50.956;3.106;2024-01-15T15:49:27;4.00;99.90
17918;DHT22;9084;50.956;3.106;2024-01-15T15:51:55;3.90;99.90
17918;DHT22;9084;50.956;3.106;2024-01-15T15:54:20;3.90;99.90
17918;DHT22;9084;50.956;3.106;2024-01-15T15:56:46;3.90;1.00
17918;DHT22;9084;50.956;3.106;2024-01-15T15:59:17;3.80;1.00
17918;DHT22;9084;50.956;3.106;2024-01-15T16:01:44;3.70;1.00
17918;DHT22;9084;50.956;3.106;2024-01-15T16:04:12;3.50;64.40
17918;DHT22;9084;50.956;3.106;2024-01-15T16:06:40;3.40;99.90
17918;DHT22;9084;50.956;3.106;2024-01-15T16:09:08;3.40;99.90
17918;DHT22;9084;50.956;3.106;2024-01-15T16:11:37;3.30;99.90
17918;DHT22;9084;50.956;3.106;2024-01-15T16:14:06;3.20;99.90